Latest Weather Observations for Cooma Airport

IDN60801

Issued at 6:42 pm EST Wednesday 23 May 2018 (issued every 10 minutes, with the page automatically refreshed every 10 minutes)

About weather observations | Map of weather stations | Latest weather observations for NSW | Other Formats
Station Details ID: 070217 Name: COOMA AIRPORT AWS Lat: -36.29 Lon: 148.97 Height: 930.0 m
Data from the previous 72 hours. | See also: Recent months at Cooma Airport
Date/Time
EST
Temp
°C
App
Temp
°C
Dew
Point
°C
Rel
Hum
%
Delta-T
°C
Wind Press
QNH
hPa
Press
MSL
hPa
Rain since
9am
mm
Dir  Spd
km/h
Gust
km/h
Spd
kts
Gust
kts
23/06:30pm 5.9 4.2 1.6 74 1.8 CALM 0 0 0 0 1023.4 1023.8 0.2
23/06:00pm 7.5 5.9 2.4 70 2.2 CALM 0 0 0 0 1023.3 1023.7 0.2
23/05:30pm 9.1 7.5 2.2 62 3.1 CALM 0 0 0 0 1023.1 1023.4 0.2
23/05:00pm 12.9 10.3 3.3 52 4.5 SW 6 7 3 4 1023.0 1023.3 0.2
23/04:30pm 15.1 12.5 4.2 48 5.3 SSW 7 9 4 5 1022.9 1023.2 0.2
23/04:00pm 16.6 13.4 3.0 40 6.5 S 9 11 5 6 1022.9 1023.2 0.2
23/03:30pm 17.3 13.5 1.7 35 7.3 SSW 11 15 6 8 1022.9 1023.2 0.2
23/03:00pm 17.7 14.0 2.5 36 7.3 SSW 11 15 6 8 1022.8 1023.1 0.2
23/02:30pm 17.4 14.8 3.3 39 6.9 ESE 6 9 3 5 1023.0 1023.3 0.2
23/02:00pm 17.2 13.7 3.5 40 6.7 SSW 11 15 6 8 1023.1 1023.4 0.2
23/01:30pm 17.1 14.5 3.4 40 6.7 S 6 11 3 6 1023.3 1023.7 0.2
23/01:00pm 16.5 13.8 3.9 43 6.1 S 7 9 4 5 1023.7 1024.0 0.0
23/12:30pm 15.4 13.3 3.9 46 5.6 E 4 7 2 4 1024.1 1024.4 0.0
23/12:00pm 14.9 12.4 4.9 51 4.9 ENE 7 11 4 6 1024.5 1024.9 0.0
23/11:30am 13.9 10.5 5.8 58 4.0 ENE 13 19 7 10 1025.1 1025.4 0.0
23/11:00am 12.5 9.1 6.1 65 3.2 NE 13 19 7 10 1025.4 1025.8 0.0
23/10:30am 11.3 8.8 6.6 73 2.3 NE 9 13 5 7 1025.6 1026.0 0.0
23/10:00am 10.0 7.1 6.7 80 1.6 NE 11 15 6 8 1025.8 1026.2 0.0
23/09:30am 9.1 6.9 6.4 83 1.3 NE 7 11 4 6 1025.8 1026.2 0.0
23/09:00am 7.5 5.8 7.4 99 0.0 NE 6 9 3 5 1026.3 1026.7 0.0
23/08:30am 5.6 3.5 5.6 100 0.0 ENE 6 9 3 5 1026.2 1026.6 0.0
23/08:13am 4.7 3.5 4.7 100 0.0 CALM 0 0 0 0 1026.1 1026.5 0.0
23/08:11am 4.6 3.4 4.6 100 0.0 CALM 0 0 0 0 1026.1 1026.5 0.0
23/08:00am 2.8 1.2 2.7 99 0.0 CALM 0 0 0 0 1026.0 1026.3 0.0
23/07:54am 3.0 1.5 2.9 99 0.0 CALM 0 0 0 0 1026.0 1026.3 0.0
23/07:43am 2.3 0.7 2.2 99 0.0 CALM 0 0 0 0 1025.8 1026.2 0.0
23/07:40am 2.1 0.4 2.0 99 0.0 CALM 0 0 0 0 1025.8 1026.2 0.0
23/07:30am 1.5 -1.0 1.4 99 0.0 N 4 7 2 4 1025.8 1026.2 0.0
23/07:28am 1.8 -0.7 1.7 99 0.0 NNE 4 7 2 4 1025.8 1026.2 0.0
23/07:00am 1.3 -1.6 1.2 99 0.0 ENE 6 7 3 4 1025.5 1025.9 0.0
23/06:37am 1.8 -0.7 1.7 99 0.0 ENE 4 7 2 4 1025.4 1025.8 0.0
23/06:30am 1.8 -0.7 1.7 99 0.0 E 4 7 2 4 1025.3 1025.7 0.0
23/06:23am 2.0 0.3 1.9 99 0.0 CALM 0 0 0 0 1025.3 1025.7 0.0
23/06:00am 2.6 -0.1 2.5 99 0.0 ENE 6 7 3 4 1024.9 1025.2 0.0
23/05:30am 2.8 -0.1 2.7 99 0.0 S 7 11 4 6 1024.4 1024.8 0.0
23/05:24am 3.0 -0.2 2.9 99 0.0 S 9 13 5 7 1024.3 1024.7 0.0
23/05:15am 3.4 -0.5 3.3 99 0.0 SSW 13 19 7 10 1024.3 1024.7 0.0
23/05:14am 3.5 -0.4 3.4 99 0.0 SSW 13 19 7 10 1024.3 1024.7 0.0
23/05:00am 4.8 0.8 4.8 100 0.0 SW 15 19 8 10 1024.2 1024.5 0.0
23/04:48am 4.7 0.3 4.7 100 0.0 SW 17 20 9 11 1024.1 1024.4 0.0
23/04:30am 4.5 -0.3 4.4 99 0.0 SW 19 20 10 11 1024.0 1024.3 0.0
23/04:15am 3.9 0.1 3.8 99 0.0 WSW 13 15 7 8 1024.1 1024.4 0.0
23/04:00am 4.2 1.2 4.1 99 0.0 WSW 9 13 5 7 1024.1 1024.4 0.0
23/03:30am 3.8 0.3 3.7 99 0.0 WSW 11 13 6 7 1024.1 1024.4 0.0
23/03:07am 4.7 2.4 4.6 99 0.0 WNW 6 11 3 6 1023.9 1024.2 0.0
23/03:00am 4.6 1.3 4.5 99 0.0 SW 11 13 6 7 1024.0 1024.3 0.0
23/02:30am 5.5 4.5 5.4 99 0.0 CALM 0 0 0 0 1024.1 1024.4 0.0
23/02:25am 5.3 4.2 5.2 99 0.0 CALM 0 0 0 0 1024.1 1024.4 0.0
23/02:12am 6.0 5.1 5.9 99 0.0 CALM 0 2 0 1 1024.1 1024.4 0.0
23/02:00am 6.5 4.3 6.4 99 0.0 SW 7 17 4 9 1024.2 1024.5 0.0
23/01:30am 7.4 3.0 7.3 99 0.0 SW 20 24 11 13 1024.1 1024.4 0.0
23/01:05am 7.5 3.3 7.4 99 0.0 SW 19 24 10 13 1024.0 1024.3 0.0
23/01:00am 7.7 3.3 7.6 99 0.0 SW 20 24 11 13 1024.1 1024.4 0.0
23/12:43am 7.8 4.4 7.7 99 0.0 SW 15 20 8 11 1024.2 1024.5 0.0
23/12:30am 7.8 4.4 7.7 99 0.0 SW 15 19 8 10 1024.2 1024.5 0.0
23/12:12am 7.6 3.8 7.5 99 0.0 SW 17 20 9 11 1024.1 1024.4 0.0
23/12:00am 7.9 3.6 7.8 99 0.0 WSW 20 26 11 14 1023.9 1024.2 0.0
 
Date/Time
EST
Temp
°C
App
Temp
°C
Dew
Point
°C
Rel
Hum
%
Delta-T
°C
Wind Press
QNH
hPa
Press
MSL
hPa
Rain since
9am
mm
Dir  Spd
km/h
Gust
km/h
Spd
kts
Gust
kts
22/11:30pm 8.0 5.8 7.9 99 0.1 W 9 11 5 6 1024.2 1024.5 0.0
22/11:19pm 8.1 5.9 8.0 99 0.1 SW 9 13 5 7 1024.3 1024.7 0.0
22/11:00pm 8.4 4.8 8.3 99 0.1 SSW 17 24 9 13 1024.2 1024.5 0.0
22/10:48pm 8.6 5.0 8.5 99 0.1 SSW 17 20 9 11 1024.2 1024.5 0.0
22/10:30pm 8.5 4.2 7.9 96 0.3 SSW 20 22 11 12 1024.0 1024.3 0.0
22/10:00pm 9.5 5.1 6.6 82 1.4 SSW 19 20 10 11 1023.9 1024.2 0.0
22/09:30pm 9.7 5.6 6.1 78 1.8 SSW 17 20 9 11 1023.6 1023.9 0.0
22/09:00pm 9.7 4.9 5.5 75 2.0 SSW 20 26 11 14 1023.0 1023.3 0.0
22/08:30pm 10.6 7.1 5.6 71 2.4 SSW 13 20 7 11 1022.9 1023.2 0.0
22/08:00pm 10.5 6.6 5.3 70 2.5 SW 15 19 8 10 1022.7 1023.0 0.0
22/07:30pm 10.6 6.3 5.4 70 2.5 SW 17 20 9 11 1022.7 1023.0 0.0
22/07:00pm 10.1 5.8 5.1 71 2.4 SW 17 22 9 12 1022.2 1022.5 0.0
22/06:30pm 11.2 4.8 5.1 66 2.9 SW 28 35 15 19 1021.8 1022.1 0.0
22/06:00pm 12.2 6.6 5.4 63 3.3 SW 24 32 13 17 1021.4 1021.6 0.0
22/05:30pm 12.5 6.2 5.7 63 3.4 SW 28 44 15 24 1020.9 1021.2 0.0
22/05:00pm 12.3 7.0 5.2 62 3.5 WSW 22 33 12 18 1020.7 1021.0 0.0
22/04:30pm 13.5 6.4 5.4 58 4.0 WSW 32 44 17 24 1020.4 1020.6 0.0
22/04:00pm 13.2 5.6 5.6 60 3.8 WSW 35 44 19 24 1020.0 1020.3 0.0
22/03:30pm 13.4 4.9 5.3 58 4.0 WSW 39 54 21 29 1019.8 1020.1 0.0
22/03:00pm 13.4 4.5 5.3 58 4.0 WSW 41 52 22 28 1019.8 1020.1 0.0
22/02:33pm 14.7 7.0 5.2 53 4.7 SW 35 54 19 29 1019.7 1020.0 0.0
22/02:30pm 15.1 7.1 5.6 53 4.8 SW 37 54 20 29 1019.7 1020.0 0.0
22/02:00pm 15.4 6.9 5.3 51 5.0 WSW 39 52 21 28 1019.6 1019.9 0.0
22/01:30pm 15.9 7.3 4.9 48 5.5 WSW 39 52 21 28 1019.6 1019.9 0.0
22/01:08pm 16.1 8.3 5.1 48 5.5 SW 35 54 19 29 1019.6 1019.9 0.0
22/01:00pm 15.8 6.9 5.1 49 5.3 SW 41 54 22 29 1019.3 1019.5 0.0
22/12:30pm 15.6 6.3 4.9 49 5.3 SW 43 59 23 32 1019.3 1019.5 0.0
22/12:00pm 15.7 6.8 5.3 50 5.2 SW 41 52 22 28 1019.7 1020.0 0.0
22/11:30am 15.1 5.2 5.0 51 5.0 SW 46 57 25 31 1019.6 1019.9 0.0
22/11:00am 14.8 5.6 5.3 53 4.7 SW 43 54 23 29 1020.0 1020.3 0.0
22/10:30am 14.3 5.8 5.1 54 4.5 SW 39 52 21 28 1019.9 1020.2 0.0
22/10:08am 14.0 4.7 5.1 55 4.4 SW 43 61 23 33 1020.0 1020.3 0.0
22/10:00am 14.0 4.6 5.6 57 4.2 SW 44 57 24 31 1019.9 1020.2 0.0
22/09:49am 13.6 4.3 5.0 56 4.2 SW 43 63 23 34 1019.7 1020.0 0.0
22/09:30am 13.8 4.7 5.7 58 4.0 SW 43 56 23 30 1019.8 1020.1 0.0
22/09:00am 12.9 4.9 5.8 62 3.5 SW 37 50 20 27 1019.9 1020.2 0.0
22/08:30am 12.1 4.9 5.9 66 3.1 SW 33 50 18 27 1019.8 1020.1 0.0
22/08:00am 11.7 4.1 5.6 66 3.0 SW 35 46 19 25 1019.6 1019.9 0.0
22/07:30am 11.1 4.0 5.4 68 2.8 SW 32 41 17 22 1019.5 1019.7 0.0
22/07:00am 9.9 4.8 6.1 77 1.9 WSW 22 28 12 15 1019.2 1019.4 0.0
22/06:46am 7.7 5.4 7.6 99 0.0 NNE 9 30 5 16 1019.1 1019.3 0.0
22/06:30am 2.1 -0.5 0.9 92 0.5 N 4 7 2 4 1019.3 1019.5 0.0
22/06:00am 0.9 -1.6 -1.2 86 0.8 ENE 2 7 1 4 1019.1 1019.3 0.0
22/05:30am 2.4 -1.0 -0.5 81 1.1 WSW 7 11 4 6 1019.1 1019.3 0.0
22/05:00am 3.0 -0.5 1.2 88 0.7 WNW 9 11 5 6 1019.0 1019.2 0.0
22/04:30am 3.1 0.0 0.0 80 1.2 WSW 6 7 3 4 1018.8 1019.1 0.0
22/04:00am 3.9 0.2 0.1 76 1.5 SSW 9 11 5 6 1018.6 1018.8 0.0
22/03:30am 6.5 2.2 1.2 69 2.2 WSW 13 17 7 9 1018.5 1018.7 0.0
22/03:00am 9.0 3.5 2.1 62 3.1 W 20 28 11 15 1018.2 1018.4 0.0
22/02:30am 9.0 3.5 2.1 62 3.1 W 20 28 11 15 1018.2 1018.4 0.0
22/02:00am 5.5 1.2 1.1 73 1.8 WSW 13 15 7 8 1018.3 1018.5 0.0
22/01:30am 7.3 3.4 1.2 65 2.6 W 11 17 6 9 1018.4 1018.6 0.0
22/01:00am 7.5 2.9 1.4 65 2.6 WNW 15 20 8 11 1018.2 1018.4 0.0
22/12:30am 8.3 2.5 2.1 65 2.7 W 22 33 12 18 1018.5 1018.7 0.0
22/12:00am 7.7 2.7 1.5 65 2.7 W 17 24 9 13 1018.3 1018.5 0.0
 
Date/Time
EST
Temp
°C
App
Temp
°C
Dew
Point
°C
Rel
Hum
%
Delta-T
°C
Wind Press
QNH
hPa
Press
MSL
hPa
Rain since
9am
mm
Dir  Spd
km/h
Gust
km/h
Spd
kts
Gust
kts
21/11:30pm 7.5 2.9 1.6 66 2.5 WNW 15 22 8 12 1018.6 1018.8 0.0
21/11:00pm 7.6 2.9 1.0 63 2.8 W 15 24 8 13 1019.1 1019.3 0.0
21/10:30pm 7.3 2.2 1.0 64 2.7 WNW 17 24 9 13 1019.2 1019.4 0.0
21/10:00pm 7.3 1.9 1.0 64 2.7 WNW 19 26 10 14 1019.4 1019.6 0.0
21/09:30pm 7.5 1.9 1.1 64 2.7 WNW 20 32 11 17 1019.2 1019.4 0.0
21/09:00pm 7.7 1.3 1.1 63 2.8 WNW 24 35 13 19 1019.2 1019.4 0.0
21/08:30pm 7.9 1.2 1.3 63 2.8 WNW 26 39 14 21 1019.3 1019.5 0.0
21/08:00pm 7.9 1.2 1.5 64 2.8 WNW 26 33 14 18 1019.1 1019.3 0.0
21/07:30pm 7.8 1.9 1.9 66 2.6 WNW 22 33 12 18 1019.3 1019.5 0.0
21/07:00pm 7.9 2.0 1.7 65 2.7 WNW 22 30 12 16 1019.4 1019.6 0.0
21/06:30pm 8.0 1.7 1.6 64 2.8 WNW 24 33 13 18 1019.2 1019.4 0.0
21/06:00pm 8.6 2.3 1.7 62 3.0 WNW 24 35 13 19 1019.0 1019.2 0.0
21/05:30pm 9.0 2.7 1.7 60 3.2 WNW 24 35 13 19 1018.5 1018.7 0.0
21/05:00pm 9.8 3.5 1.7 57 3.6 WNW 24 32 13 17 1018.3 1018.5 0.0
21/04:30pm 10.7 4.8 1.8 54 4.0 WNW 22 33 12 18 1018.3 1018.5 0.0
21/04:00pm 11.6 6.0 1.5 50 4.5 W 20 30 11 16 1017.8 1018.0 0.0
21/03:30pm 13.2 6.8 1.2 44 5.4 W 24 33 13 18 1017.3 1017.5 0.0
21/03:00pm 13.6 7.6 1.3 43 5.6 W 22 30 12 16 1017.2 1017.4 0.0
21/02:30pm 14.1 8.5 1.1 41 5.9 W 20 28 11 15 1017.5 1017.7 0.0
21/02:00pm 14.2 9.1 0.8 40 6.0 W 17 26 9 14 1017.4 1017.6 0.0
21/01:30pm 14.3 7.2 1.2 41 6.0 SW 28 39 15 21 1017.6 1017.8 0.0
21/01:00pm 13.9 5.8 -0.5 37 6.3 SSW 32 43 17 23 1017.8 1018.0 0.0
21/12:50pm 14.3 7.1 0.9 40 6.1 SSW 28 46 15 25 1018.0 1018.2 0.0
21/12:30pm 13.8 5.8 0.1 39 6.1 SSW 32 46 17 25 1018.1 1018.3 0.0
21/12:00pm 13.6 5.4 0.3 40 5.9 SW 33 43 18 23 1018.3 1018.5 0.0
21/11:30am 13.9 7.5 1.2 42 5.8 SW 24 35 13 19 1018.6 1018.8 0.0
21/11:00am 13.3 6.5 1.0 43 5.5 W 26 39 14 21 1018.8 1019.1 0.0
21/10:30am 13.0 6.7 1.7 46 5.1 WSW 24 35 13 19 1019.0 1019.2 0.0
21/10:00am 12.4 5.8 2.0 49 4.7 W 26 35 14 19 1019.1 1019.3 0.0
21/09:30am 11.7 5.1 2.2 52 4.3 W 26 35 14 19 1019.2 1019.4 0.0
21/09:00am 10.9 4.7 2.2 55 3.9 W 24 32 13 17 1018.7 1019.0 0.0
21/08:30am 10.0 4.3 2.8 61 3.3 WSW 22 32 12 17 1018.6 1018.8 0.0
21/08:00am 8.7 3.6 3.1 68 2.5 WSW 19 24 10 13 1018.7 1019.0 0.0
21/07:30am 6.4 2.4 2.9 78 1.5 WSW 13 17 7 9 1018.6 1018.8 0.0
21/07:00am 5.2 0.5 1.0 74 1.7 WSW 15 17 8 9 1018.4 1018.6 0.0
21/06:30am 6.9 1.4 1.6 69 2.3 WSW 20 24 11 13 1018.2 1018.4 0.0
21/06:00am 8.6 2.4 2.2 64 2.8 WSW 24 35 13 19 1018.3 1018.5 0.0
21/05:30am 7.4 2.4 1.3 65 2.6 SW 17 26 9 14 1018.0 1018.2 0.0
21/05:00am 7.6 2.7 1.7 66 2.6 WSW 17 22 9 12 1017.8 1018.0 0.0
21/04:30am 7.5 2.3 2.2 69 2.3 SSW 19 26 10 14 1018.0 1018.2 0.0
21/04:00am 8.6 2.1 2.4 65 2.8 WSW 26 37 14 20 1017.9 1018.1 0.0
21/03:43am 8.7 2.6 2.7 66 2.7 W 24 46 13 25 1017.9 1018.1 0.0
21/03:38am 8.7 4.0 3.3 69 2.5 W 17 33 9 18 1017.8 1018.0 0.0
21/03:30am 6.9 4.1 3.0 76 1.7 W 7 11 4 6 1018.2 1018.4 0.0
21/03:00am 6.5 3.1 1.8 72 2.0 WSW 9 11 5 6 1018.4 1018.6 0.0
21/02:30am 7.5 2.7 2.6 71 2.2 WSW 17 24 9 13 1019.0 1019.2 0.0
21/02:00am 5.2 3.4 1.1 75 1.7 CALM 0 6 0 3 1019.1 1019.3 0.0
21/01:30am 8.1 4.9 3.0 70 2.3 W 9 15 5 8 1019.3 1019.5 0.0
21/01:00am 8.3 3.6 3.0 69 2.4 W 17 20 9 11 1019.5 1019.7 0.0
21/12:30am 8.4 3.4 3.5 71 2.2 W 19 26 10 14 1019.9 1020.2 0.0
21/12:00am 7.9 3.2 3.2 72 2.1 W 17 22 9 12 1020.2 1020.4 0.0
 
Date/Time
EST
Temp
°C
App
Temp
°C
Dew
Point
°C
Rel
Hum
%
Delta-T
°C
Wind Press
QNH
hPa
Press
MSL
hPa
Rain since
9am
mm
Dir  Spd
km/h
Gust
km/h
Spd
kts
Gust
kts
20/11:30pm 7.3 3.4 3.4 76 1.8 WNW 13 19 7 10 1020.4 1020.6 0.0
20/11:00pm 7.7 2.7 3.4 74 1.9 WNW 19 26 10 14 1020.4 1020.6 0.0
20/10:30pm 8.5 3.3 3.4 70 2.3 W 20 28 11 15 1020.7 1021.0 0.0
20/10:00pm 8.7 2.7 3.1 68 2.5 W 24 35 13 19 1020.7 1021.0 0.0
20/09:30pm 7.7 2.6 3.0 72 2.1 W 19 28 10 15 1020.8 1021.1 0.0
20/09:00pm 7.6 1.8 2.5 70 2.2 WNW 22 32 12 17 1020.6 1020.9 0.0
20/08:30pm 8.0 2.2 2.3 67 2.5 W 22 30 12 16 1020.6 1020.9 0.0
20/08:00pm 7.6 1.4 1.9 67 2.5 WNW 24 33 13 18 1020.4 1020.6 0.0
20/07:30pm 8.3 2.4 1.9 64 2.8 WNW 22 32 12 17 1020.6 1020.9 0.0
20/07:00pm 7.8 2.3 1.6 65 2.7 WNW 20 28 11 15 1020.7 1021.0 0.0

Other Formats:

Comma delimited format used in spreadsheet applications
http://www.bom.gov.au/fwo/IDN60801/IDN60801.94921.axf

JavaScript Object Notation format (JSON) in row-major order
http://www.bom.gov.au/fwo/IDN60801/IDN60801.94921.json